sensor_id;sensor_type;location;lat;lon;timestamp;temperature;humidity
13198;DHT22;6664;52.514;13.440;2023-02-13T00:01:00;8.20;99.90
13198;DHT22;6664;52.514;13.440;2023-02-13T00:03:48;8.30;99.90
13198;DHT22;6664;52.514;13.440;2023-02-13T00:06:33;8.30;99.90
13198;DHT22;6664;52.514;13.440;2023-02-13T00:09:19;8.20;99.90
13198;DHT22;6664;52.514;13.440;2023-02-13T00:12:05;8.10;99.90
13198;DHT22;6664;52.514;13.440;2023-02-13T00:14:51;8.10;99.90
13198;DHT22;6664;52.514;13.440;2023-02-13T00:17:36;8.20;99.90
13198;DHT22;6664;52.514;13.440;2023-02-13T00:20:25;8.20;99.90
13198;DHT22;6664;52.514;13.440;2023-02-13T00:23:10;8.20;99.90
13198;DHT22;6664;52.514;13.440;2023-02-13T00:25:57;8.20;99.90
13198;DHT22;6664;52.514;13.440;2023-02-13T00:28:43;8.10;99.90
13198;DHT22;6664;52.514;13.440;2023-02-13T00:31:28;8.10;99.90
13198;DHT22;6664;52.514;13.440;2023-02-13T00:34:14;8.10;99.60
13198;DHT22;6664;52.514;13.440;2023-02-13T00:36:59;8.10;98.60
13198;DHT22;6664;52.514;13.440;2023-02-13T00:39:47;8.10;98.20
13198;DHT22;6664;52.514;13.440;2023-02-13T00:42:35;8.10;97.70
13198;DHT22;6664;52.514;13.440;2023-02-13T00:45:21;8.10;97.80
13198;DHT22;6664;52.514;13.440;2023-02-13T00:48:06;8.00;97.80
13198;DHT22;6664;52.514;13.440;2023-02-13T00:50:52;8.00;97.00
13198;DHT22;6664;52.514;13.440;2023-02-13T00:53:40;8.00;96.50
13198;DHT22;6664;52.514;13.440;2023-02-13T00:56:26;8.00;96.80
13198;DHT22;6664;52.514;13.440;2023-02-13T00:59:12;8.00;96.40
13198;DHT22;6664;52.514;13.440;2023-02-13T01:01:57;8.00;96.20
13198;DHT22;6664;52.514;13.440;2023-02-13T01:04:43;8.00;95.40
13198;DHT22;6664;52.514;13.440;2023-02-13T01:07:29;8.00;95.20
13198;DHT22;6664;52.514;13.440;2023-02-13T01:10:14;8.00;94.70
13198;DHT22;6664;52.514;13.440;2023-02-13T01:12:59;8.00;94.40
13198;DHT22;6664;52.514;13.440;2023-02-13T01:15:46;7.90;93.50
13198;DHT22;6664;52.514;13.440;2023-02-13T01:18:32;7.90;92.00
13198;DHT22;6664;52.514;13.440;2023-02-13T01:21:20;7.90;92.00
13198;DHT22;6664;52.514;13.440;2023-02-13T01:24:07;8.00;91.10
13198;DHT22;6664;52.514;13.440;2023-02-13T01:26:53;7.90;90.90
13198;DHT22;6664;52.514;13.440;2023-02-13T01:29:38;8.00;90.80
13198;DHT22;6664;52.514;13.440;2023-02-13T01:32:26;7.90;91.00
13198;DHT22;6664;52.514;13.440;2023-02-13T01:35:12;7.90;90.90
13198;DHT22;6664;52.514;13.440;2023-02-13T01:37:58;7.90;90.90
13198;DHT22;6664;52.514;13.440;2023-02-13T01:40:53;7.90;91.10
13198;DHT22;6664;52.514;13.440;2023-02-13T01:43:53;7.90;91.00
13198;DHT22;6664;52.514;13.440;2023-02-13T01:46:41;7.80;91.20
13198;DHT22;6664;52.514;13.440;2023-02-13T01:49:28;7.80;91.30
13198;DHT22;6664;52.514;13.440;2023-02-13T01:52:14;7.80;91.20
13198;DHT22;6664;52.514;13.440;2023-02-13T01:55:00;7.70;91.20
13198;DHT22;6664;52.514;13.440;2023-02-13T01:57:53;7.70;91.40
13198;DHT22;6664;52.514;13.440;2023-02-13T02:00:44;7.70;91.60
13198;DHT22;6664;52.514;13.440;2023-02-13T02:04:14;7.80;91.50
13198;DHT22;6664;52.514;13.440;2023-02-13T02:07:08;7.70;91.80
13198;DHT22;6664;52.514;13.440;2023-02-13T02:10:01;7.70;91.80
13198;DHT22;6664;52.514;13.440;2023-02-13T02:13:07;7.70;92.00
13198;DHT22;6664;52.514;13.440;2023-02-13T02:15:54;7.70;92.20
13198;DHT22;6664;52.514;13.440;2023-02-13T02:18:39;7.60;92.30
13198;DHT22;6664;52.514;13.440;2023-02-13T02:21:51;7.60;92.60
13198;DHT22;6664;52.514;13.440;2023-02-13T02:34:14;7.60;92.90
13198;DHT22;6664;52.514;13.440;2023-02-13T02:40:16;7.50;93.10
13198;DHT22;6664;52.514;13.440;2023-02-13T02:43:19;7.50;93.40
13198;DHT22;6664;52.514;13.440;2023-02-13T02:47:13;7.60;93.50
13198;DHT22;6664;52.514;13.440;2023-02-13T02:49:54;7.50;93.80
13198;DHT22;6664;52.514;13.440;2023-02-13T02:58:59;7.50;94.70
13198;DHT22;6664;52.514;13.440;2023-02-13T03:02:05;7.50;94.90
13198;DHT22;6664;52.514;13.440;2023-02-13T03:05:23;7.50;94.90
13198;DHT22;6664;52.514;13.440;2023-02-13T03:08:29;7.50;95.00
13198;DHT22;6664;52.514;13.440;2023-02-13T03:11:36;7.50;95.10
13198;DHT22;6664;52.514;13.440;2023-02-13T03:14:40;7.40;95.70
13198;DHT22;6664;52.514;13.440;2023-02-13T03:17:26;7.40;95.60
13198;DHT22;6664;52.514;13.440;2023-02-13T03:20:44;7.40;96.10
13198;DHT22;6664;52.514;13.440;2023-02-13T03:24:02;7.40;96.30
13198;DHT22;6664;52.514;13.440;2023-02-13T03:27:15;7.40;96.70
13198;DHT22;6664;52.514;13.440;2023-02-13T03:37:03;7.40;96.30
13198;DHT22;6664;52.514;13.440;2023-02-13T03:40:15;7.40;96.30
13198;DHT22;6664;52.514;13.440;2023-02-13T03:43:14;7.30;96.40
13198;DHT22;6664;52.514;13.440;2023-02-13T03:46:01;7.30;96.60
13198;DHT22;6664;52.514;13.440;2023-02-13T03:48:47;7.40;96.10
13198;DHT22;6664;52.514;13.440;2023-02-13T03:52:04;7.40;96.30
13198;DHT22;6664;52.514;13.440;2023-02-13T03:55:05;7.40;95.20
13198;DHT22;6664;52.514;13.440;2023-02-13T03:58:17;7.40;95.10
13198;DHT22;6664;52.514;13.440;2023-02-13T04:01:26;7.40;94.90
13198;DHT22;6664;52.514;13.440;2023-02-13T04:04:39;7.30;94.60
13198;DHT22;6664;52.514;13.440;2023-02-13T04:07:27;7.40;94.00
13198;DHT22;6664;52.514;13.440;2023-02-13T04:10:16;7.40;94.00
13198;DHT22;6664;52.514;13.440;2023-02-13T04:13:12;7.40;93.50
13198;DHT22;6664;52.514;13.440;2023-02-13T04:16:15;7.40;93.50
13198;DHT22;6664;52.514;13.440;2023-02-13T04:19:04;7.40;93.30
13198;DHT22;6664;52.514;13.440;2023-02-13T04:21:56;7.40;92.80
13198;DHT22;6664;52.514;13.440;2023-02-13T04:24:45;7.40;92.50
13198;DHT22;6664;52.514;13.440;2023-02-13T04:27:30;7.40;92.50
13198;DHT22;6664;52.514;13.440;2023-02-13T04:30:17;7.40;92.30
13198;DHT22;6664;52.514;13.440;2023-02-13T04:33:05;7.40;92.10
13198;DHT22;6664;52.514;13.440;2023-02-13T04:35:51;7.40;91.20
13198;DHT22;6664;52.514;13.440;2023-02-13T04:38:36;7.40;91.20
13198;DHT22;6664;52.514;13.440;2023-02-13T04:41:22;7.40;90.70
13198;DHT22;6664;52.514;13.440;2023-02-13T04:44:10;7.50;90.50
13198;DHT22;6664;52.514;13.440;2023-02-13T04:46:55;7.40;90.30
13198;DHT22;6664;52.514;13.440;2023-02-13T04:49:41;7.50;90.30
13198;DHT22;6664;52.514;13.440;2023-02-13T04:52:26;7.50;90.00
13198;DHT22;6664;52.514;13.440;2023-02-13T04:55:12;7.50;89.80
13198;DHT22;6664;52.514;13.440;2023-02-13T04:57:58;7.50;89.20
13198;DHT22;6664;52.514;13.440;2023-02-13T05:00:46;7.50;88.80
13198;DHT22;6664;52.514;13.440;2023-02-13T05:03:31;7.50;89.10
13198;DHT22;6664;52.514;13.440;2023-02-13T05:06:18;7.40;88.70
13198;DHT22;6664;52.514;13.440;2023-02-13T05:09:06;7.50;88.60
13198;DHT22;6664;52.514;13.440;2023-02-13T05:11:52;7.50;87.80
13198;DHT22;6664;52.514;13.440;2023-02-13T05:14:40;7.50;87.60
13198;DHT22;6664;52.514;13.440;2023-02-13T05:17:25;7.50;86.90
13198;DHT22;6664;52.514;13.440;2023-02-13T05:20:13;7.40;86.60
13198;DHT22;6664;52.514;13.440;2023-02-13T05:23:02;7.40;86.50
13198;DHT22;6664;52.514;13.440;2023-02-13T05:26:06;7.40;86.60
13198;DHT22;6664;52.514;13.440;2023-02-13T05:28:51;7.40;86.30
13198;DHT22;6664;52.514;13.440;2023-02-13T05:31:57;7.40;86.30
13198;DHT22;6664;52.514;13.440;2023-02-13T05:34:45;7.40;86.60
13198;DHT22;6664;52.514;13.440;2023-02-13T05:37:31;7.40;86.40
13198;DHT22;6664;52.514;13.440;2023-02-13T05:40:17;7.40;86.40
13198;DHT22;6664;52.514;13.440;2023-02-13T05:43:07;7.40;86.60
13198;DHT22;6664;52.514;13.440;2023-02-13T05:46:01;7.40;86.60
13198;DHT22;6664;52.514;13.440;2023-02-13T05:48:47;7.40;86.20
13198;DHT22;6664;52.514;13.440;2023-02-13T05:51:33;7.50;85.30
13198;DHT22;6664;52.514;13.440;2023-02-13T05:54:18;7.50;84.80
13198;DHT22;6664;52.514;13.440;2023-02-13T05:57:04;7.50;84.00
13198;DHT22;6664;52.514;13.440;2023-02-13T05:59:49;7.50;82.70
13198;DHT22;6664;52.514;13.440;2023-02-13T06:02:36;7.50;82.20
13198;DHT22;6664;52.514;13.440;2023-02-13T06:05:22;7.60;82.30
13198;DHT22;6664;52.514;13.440;2023-02-13T06:08:08;7.50;81.60
13198;DHT22;6664;52.514;13.440;2023-02-13T06:10:53;7.60;81.60
13198;DHT22;6664;52.514;13.440;2023-02-13T06:13:39;7.50;81.50
13198;DHT22;6664;52.514;13.440;2023-02-13T06:16:25;7.60;81.50
13198;DHT22;6664;52.514;13.440;2023-02-13T06:19:14;7.60;80.80
13198;DHT22;6664;52.514;13.440;2023-02-13T06:22:00;7.50;79.90
13198;DHT22;6664;52.514;13.440;2023-02-13T06:24:45;7.60;79.60
13198;DHT22;6664;52.514;13.440;2023-02-13T06:27:33;7.60;79.30
13198;DHT22;6664;52.514;13.440;2023-02-13T06:30:21;7.60;78.10
13198;DHT22;6664;52.514;13.440;2023-02-13T06:33:07;7.60;78.20
13198;DHT22;6664;52.514;13.440;2023-02-13T06:35:53;7.60;77.90
13198;DHT22;6664;52.514;13.440;2023-02-13T06:38:41;7.60;77.20
13198;DHT22;6664;52.514;13.440;2023-02-13T06:41:27;7.70;77.00
13198;DHT22;6664;52.514;13.440;2023-02-13T06:44:12;7.70;76.40
13198;DHT22;6664;52.514;13.440;2023-02-13T06:46:58;7.70;76.30
13198;DHT22;6664;52.514;13.440;2023-02-13T06:49:44;7.70;75.70
13198;DHT22;6664;52.514;13.440;2023-02-13T06:52:29;7.70;75.40
13198;DHT22;6664;52.514;13.440;2023-02-13T06:55:16;7.70;74.90
13198;DHT22;6664;52.514;13.440;2023-02-13T06:58:02;7.70;74.30
13198;DHT22;6664;52.514;13.440;2023-02-13T07:00:49;7.70;74.80
13198;DHT22;6664;52.514;13.440;2023-02-13T07:03:35;7.70;74.30
13198;DHT22;6664;52.514;13.440;2023-02-13T07:06:20;7.80;73.90
13198;DHT22;6664;52.514;13.440;2023-02-13T07:09:06;7.70;73.60
13198;DHT22;6664;52.514;13.440;2023-02-13T07:11:51;7.80;73.60
13198;DHT22;6664;52.514;13.440;2023-02-13T07:14:37;7.80;73.30
13198;DHT22;6664;52.514;13.440;2023-02-13T07:17:22;7.80;73.30
13198;DHT22;6664;52.514;13.440;2023-02-13T07:20:08;7.80;73.40
13198;DHT22;6664;52.514;13.440;2023-02-13T07:23:01;7.80;73.50
13198;DHT22;6664;52.514;13.440;2023-02-13T07:25:49;7.90;73.70
13198;DHT22;6664;52.514;13.440;2023-02-13T07:28:34;7.90;73.20
13198;DHT22;6664;52.514;13.440;2023-02-13T07:31:20;7.90;73.40
13198;DHT22;6664;52.514;13.440;2023-02-13T07:34:06;7.90;73.30
13198;DHT22;6664;52.514;13.440;2023-02-13T07:36:52;7.90;73.50
13198;DHT22;6664;52.514;13.440;2023-02-13T07:39:37;7.90;73.40
13198;DHT22;6664;52.514;13.440;2023-02-13T07:42:23;7.90;73.60
13198;DHT22;6664;52.514;13.440;2023-02-13T07:45:09;8.00;73.70
13198;DHT22;6664;52.514;13.440;2023-02-13T07:47:56;7.90;73.60
13198;DHT22;6664;52.514;13.440;2023-02-13T07:50:42;7.90;73.70
13198;DHT22;6664;52.514;13.440;2023-02-13T07:53:27;8.00;74.10
13198;DHT22;6664;52.514;13.440;2023-02-13T07:56:19;8.00;74.30
13198;DHT22;6664;52.514;13.440;2023-02-13T07:59:05;8.00;74.20
13198;DHT22;6664;52.514;13.440;2023-02-13T08:01:57;8.00;74.30
13198;DHT22;6664;52.514;13.440;2023-02-13T08:04:43;8.10;74.30
13198;DHT22;6664;52.514;13.440;2023-02-13T08:07:31;8.10;74.40
13198;DHT22;6664;52.514;13.440;2023-02-13T08:10:17;8.10;74.00
13198;DHT22;6664;52.514;13.440;2023-02-13T08:13:21;8.10;74.00
13198;DHT22;6664;52.514;13.440;2023-02-13T08:16:06;8.20;74.50
13198;DHT22;6664;52.514;13.440;2023-02-13T08:18:52;8.30;73.90
13198;DHT22;6664;52.514;13.440;2023-02-13T08:21:37;8.30;74.00
13198;DHT22;6664;52.514;13.440;2023-02-13T08:24:24;8.20;74.00
13198;DHT22;6664;52.514;13.440;2023-02-13T08:27:14;8.40;74.40
13198;DHT22;6664;52.514;13.440;2023-02-13T08:29:59;8.50;73.50
13198;DHT22;6664;52.514;13.440;2023-02-13T08:32:45;8.40;73.30
13198;DHT22;6664;52.514;13.440;2023-02-13T08:35:38;8.40;73.80
13198;DHT22;6664;52.514;13.440;2023-02-13T08:38:24;8.30;73.70
13198;DHT22;6664;52.514;13.440;2023-02-13T08:41:10;8.40;73.60
13198;DHT22;6664;52.514;13.440;2023-02-13T08:43:56;8.50;73.50
13198;DHT22;6664;52.514;13.440;2023-02-13T08:46:41;8.50;73.50
13198;DHT22;6664;52.514;13.440;2023-02-13T08:49:29;8.60;73.50
13198;DHT22;6664;52.514;13.440;2023-02-13T08:52:17;8.70;72.60
13198;DHT22;6664;52.514;13.440;2023-02-13T08:55:02;8.50;73.10
13198;DHT22;6664;52.514;13.440;2023-02-13T08:57:48;8.40;73.40
13198;DHT22;6664;52.514;13.440;2023-02-13T09:00:34;8.50;73.40
13198;DHT22;6664;52.514;13.440;2023-02-13T09:03:20;8.60;73.10
13198;DHT22;6664;52.514;13.440;2023-02-13T09:06:07;8.80;72.70
13198;DHT22;6664;52.514;13.440;2023-02-13T09:08:52;8.60;72.30
13198;DHT22;6664;52.514;13.440;2023-02-13T09:11:38;8.60;73.30
13198;DHT22;6664;52.514;13.440;2023-02-13T09:14:23;8.60;73.30
13198;DHT22;6664;52.514;13.440;2023-02-13T09:17:09;8.40;74.10
13198;DHT22;6664;52.514;13.440;2023-02-13T09:19:55;8.50;75.00
13198;DHT22;6664;52.514;13.440;2023-02-13T09:22:43;8.40;75.30
13198;DHT22;6664;52.514;13.440;2023-02-13T09:25:31;8.40;75.60
13198;DHT22;6664;52.514;13.440;2023-02-13T09:28:18;8.40;76.40
13198;DHT22;6664;52.514;13.440;2023-02-13T09:31:11;8.50;78.90
13198;DHT22;6664;52.514;13.440;2023-02-13T09:34:00;8.40;80.10
13198;DHT22;6664;52.514;13.440;2023-02-13T09:36:45;8.30;78.70
13198;DHT22;6664;52.514;13.440;2023-02-13T09:39:31;8.10;80.40
13198;DHT22;6664;52.514;13.440;2023-02-13T09:42:31;8.00;83.40
13198;DHT22;6664;52.514;13.440;2023-02-13T09:45:21;7.90;86.30
13198;DHT22;6664;52.514;13.440;2023-02-13T09:48:13;8.00;87.50
13198;DHT22;6664;52.514;13.440;2023-02-13T09:51:00;8.00;88.60
13198;DHT22;6664;52.514;13.440;2023-02-13T09:54:00;8.00;90.20
13198;DHT22;6664;52.514;13.440;2023-02-13T09:57:24;8.10;90.70
13198;DHT22;6664;52.514;13.440;2023-02-13T10:00:24;8.10;91.50
13198;DHT22;6664;52.514;13.440;2023-02-13T10:03:36;7.90;92.40
13198;DHT22;6664;52.514;13.440;2023-02-13T10:06:35;7.80;93.20
13198;DHT22;6664;52.514;13.440;2023-02-13T10:12:36;7.90;94.50
13198;DHT22;6664;52.514;13.440;2023-02-13T10:18:50;8.20;95.40
13198;DHT22;6664;52.514;13.440;2023-02-13T10:21:49;8.10;95.60
13198;DHT22;6664;52.514;13.440;2023-02-13T10:27:33;8.20;96.30
13198;DHT22;6664;52.514;13.440;2023-02-13T10:31:05;8.10;96.00
13198;DHT22;6664;52.514;13.440;2023-02-13T10:33:50;8.10;95.80
13198;DHT22;6664;52.514;13.440;2023-02-13T10:36:41;8.10;95.10
13198;DHT22;6664;52.514;13.440;2023-02-13T10:39:30;8.20;96.00
13198;DHT22;6664;52.514;13.440;2023-02-13T10:51:39;8.40;94.10
13198;DHT22;6664;52.514;13.440;2023-02-13T10:58:05;8.40;92.00
13198;DHT22;6664;52.514;13.440;2023-02-13T11:04:10;8.60;89.30
13198;DHT22;6664;52.514;13.440;2023-02-13T11:07:02;8.70;89.50
13198;DHT22;6664;52.514;13.440;2023-02-13T11:09:50;8.80;88.60
13198;DHT22;6664;52.514;13.440;2023-02-13T11:12:37;9.20;88.50
13198;DHT22;6664;52.514;13.440;2023-02-13T11:15:31;9.10;85.20
13198;DHT22;6664;52.514;13.440;2023-02-13T11:18:19;9.00;83.30
13198;DHT22;6664;52.514;13.440;2023-02-13T11:21:13;9.00;82.40
13198;DHT22;6664;52.514;13.440;2023-02-13T11:24:00;8.90;81.60
13198;DHT22;6664;52.514;13.440;2023-02-13T11:26:51;8.70;82.60
13198;DHT22;6664;52.514;13.440;2023-02-13T11:29:54;8.70;82.70
13198;DHT22;6664;52.514;13.440;2023-02-13T11:32:40;8.70;82.40
13198;DHT22;6664;52.514;13.440;2023-02-13T11:35:29;8.70;82.60
13198;DHT22;6664;52.514;13.440;2023-02-13T11:41:13;8.70;80.60
13198;DHT22;6664;52.514;13.440;2023-02-13T11:44:00;8.80;80.10
13198;DHT22;6664;52.514;13.440;2023-02-13T11:46:49;8.80;81.10
13198;DHT22;6664;52.514;13.440;2023-02-13T11:49:44;8.80;80.00
13198;DHT22;6664;52.514;13.440;2023-02-13T11:52:33;8.70;80.40
13198;DHT22;6664;52.514;13.440;2023-02-13T11:55:31;8.60;80.50
13198;DHT22;6664;52.514;13.440;2023-02-13T11:58:28;8.60;80.20
13198;DHT22;6664;52.514;13.440;2023-02-13T12:01:24;8.60;81.00
13198;DHT22;6664;52.514;13.440;2023-02-13T12:04:15;8.60;79.30
13198;DHT22;6664;52.514;13.440;2023-02-13T12:07:10;8.80;78.50
13198;DHT22;6664;52.514;13.440;2023-02-13T12:10:06;8.80;77.70
13198;DHT22;6664;52.514;13.440;2023-02-13T12:16:29;8.80;76.60
13198;DHT22;6664;52.514;13.440;2023-02-13T12:19:27;8.80;76.10
13198;DHT22;6664;52.514;13.440;2023-02-13T12:25:34;9.00;74.70
13198;DHT22;6664;52.514;13.440;2023-02-13T12:28:39;8.90;72.60
13198;DHT22;6664;52.514;13.440;2023-02-13T12:34:53;9.20;72.70
13198;DHT22;6664;52.514;13.440;2023-02-13T12:37:56;9.20;72.40
13198;DHT22;6664;52.514;13.440;2023-02-13T12:47:29;9.00;72.30
13198;DHT22;6664;52.514;13.440;2023-02-13T12:53:33;8.80;71.60
13198;DHT22;6664;52.514;13.440;2023-02-13T12:56:49;8.80;71.60
13198;DHT22;6664;52.514;13.440;2023-02-13T13:08:55;8.60;71.70
13198;DHT22;6664;52.514;13.440;2023-02-13T13:21:06;8.50;73.00
13198;DHT22;6664;52.514;13.440;2023-02-13T13:27:35;8.80;72.40
13198;DHT22;6664;52.514;13.440;2023-02-13T13:30:27;8.80;72.50
13198;DHT22;6664;52.514;13.440;2023-02-13T13:33:17;8.60;72.20
13198;DHT22;6664;52.514;13.440;2023-02-13T13:36:16;8.60;72.20
13198;DHT22;6664;52.514;13.440;2023-02-13T13:45:27;8.50;73.60
13198;DHT22;6664;52.514;13.440;2023-02-13T13:51:32;8.80;73.20
13198;DHT22;6664;52.514;13.440;2023-02-13T13:54:21;8.70;72.90
13198;DHT22;6664;52.514;13.440;2023-02-13T13:57:08;8.80;72.40
13198;DHT22;6664;52.514;13.440;2023-02-13T14:00:00;8.60;72.30
13198;DHT22;6664;52.514;13.440;2023-02-13T14:06:08;8.50;71.60
13198;DHT22;6664;52.514;13.440;2023-02-13T14:08:59;8.40;71.90
13198;DHT22;6664;52.514;13.440;2023-02-13T14:11:45;8.40;72.00
13198;DHT22;6664;52.514;13.440;2023-02-13T14:26:39;8.30;72.00
13198;DHT22;6664;52.514;13.440;2023-02-13T14:29:29;8.40;72.60
13198;DHT22;6664;52.514;13.440;2023-02-13T14:35:24;8.50;71.90
13198;DHT22;6664;52.514;13.440;2023-02-13T14:38:22;8.40;71.60
13198;DHT22;6664;52.514;13.440;2023-02-13T14:41:42;8.40;71.20
13198;DHT22;6664;52.514;13.440;2023-02-13T14:47:40;8.40;70.50
13198;DHT22;6664;52.514;13.440;2023-02-13T14:50:36;8.30;70.10
13198;DHT22;6664;52.514;13.440;2023-02-13T14:53:30;8.30;68.80
13198;DHT22;6664;52.514;13.440;2023-02-13T14:56:19;8.20;68.90
13198;DHT22;6664;52.514;13.440;2023-02-13T14:59:14;8.30;70.00
13198;DHT22;6664;52.514;13.440;2023-02-13T15:02:21;8.20;69.50
13198;DHT22;6664;52.514;13.440;2023-02-13T15:05:13;8.20;70.10
13198;DHT22;6664;52.514;13.440;2023-02-13T15:08:17;8.20;69.90
13198;DHT22;6664;52.514;13.440;2023-02-13T15:11:06;8.00;69.40
13198;DHT22;6664;52.514;13.440;2023-02-13T15:14:50;8.00;69.60
13198;DHT22;6664;52.514;13.440;2023-02-13T15:17:32;8.00;70.10
13198;DHT22;6664;52.514;13.440;2023-02-13T15:20:27;8.00;70.80
13198;DHT22;6664;52.514;13.440;2023-02-13T15:23:20;8.00;70.70
13198;DHT22;6664;52.514;13.440;2023-02-13T15:26:17;8.00;71.50
13198;DHT22;6664;52.514;13.440;2023-02-13T15:29:15;8.00;71.60
13198;DHT22;6664;52.514;13.440;2023-02-13T15:32:22;8.00;70.10
13198;DHT22;6664;52.514;13.440;2023-02-13T15:35:31;8.00;70.40
13198;DHT22;6664;52.514;13.440;2023-02-13T15:38:35;8.00;68.90
13198;DHT22;6664;52.514;13.440;2023-02-13T15:41:26;7.90;68.00
13198;DHT22;6664;52.514;13.440;2023-02-13T15:47:20;7.90;69.40
13198;DHT22;6664;52.514;13.440;2023-02-13T15:50:20;7.90;69.60
13198;DHT22;6664;52.514;13.440;2023-02-13T15:53:15;7.90;70.00
13198;DHT22;6664;52.514;13.440;2023-02-13T15:56:05;7.90;70.20
13198;DHT22;6664;52.514;13.440;2023-02-13T15:58:51;7.80;70.70
13198;DHT22;6664;52.514;13.440;2023-02-13T16:01:40;7.70;71.00
13198;DHT22;6664;52.514;13.440;2023-02-13T16:04:29;7.70;71.40
13198;DHT22;6664;52.514;13.440;2023-02-13T16:07:14;7.70;71.20
13198;DHT22;6664;52.514;13.440;2023-02-13T16:10:38;7.70;71.20
13198;DHT22;6664;52.514;13.440;2023-02-13T16:13:23;7.70;70.60
13198;DHT22;6664;52.514;13.440;2023-02-13T16:16:09;7.60;70.40
13198;DHT22;6664;52.514;13.440;2023-02-13T16:18:58;7.60;70.50
13198;DHT22;6664;52.514;13.440;2023-02-13T16:21:49;7.60;70.60
13198;DHT22;6664;52.514;13.440;2023-02-13T16:24:35;7.60;70.30
13198;DHT22;6664;52.514;13.440;2023-02-13T16:27:25;7.60;70.50
13198;DHT22;6664;52.514;13.440;2023-02-13T16:30:31;7.60;70.90
13198;DHT22;6664;52.514;13.440;2023-02-13T16:33:27;7.50;70.30
13198;DHT22;6664;52.514;13.440;2023-02-13T16:39:10;7.50;71.00
13198;DHT22;6664;52.514;13.440;2023-02-13T16:41:57;7.60;71.00
13198;DHT22;6664;52.514;13.440;2023-02-13T16:44:43;7.50;71.20
13198;DHT22;6664;52.514;13.440;2023-02-13T16:47:28;7.50;71.00
13198;DHT22;6664;52.514;13.440;2023-02-13T16:50:15;7.50;71.10
13198;DHT22;6664;52.514;13.440;2023-02-13T16:53:02;7.40;71.20
13198;DHT22;6664;52.514;13.440;2023-02-13T16:56:00;7.50;71.20
13198;DHT22;6664;52.514;13.440;2023-02-13T16:58:48;7.40;71.90
13198;DHT22;6664;52.514;13.440;2023-02-13T17:01:34;7.40;71.30
13198;DHT22;6664;52.514;13.440;2023-02-13T17:04:24;7.50;71.20
13198;DHT22;6664;52.514;13.440;2023-02-13T17:07:12;7.40;71.20
13198;DHT22;6664;52.514;13.440;2023-02-13T17:10:04;7.40;71.30
13198;DHT22;6664;52.514;13.440;2023-02-13T17:12:50;7.50;71.40
13198;DHT22;6664;52.514;13.440;2023-02-13T17:15:40;7.50;71.80
13198;DHT22;6664;52.514;13.440;2023-02-13T17:18:26;7.50;71.70
13198;DHT22;6664;52.514;13.440;2023-02-13T17:21:12;7.50;71.20
13198;DHT22;6664;52.514;13.440;2023-02-13T17:24:00;7.50;71.40
13198;DHT22;6664;52.514;13.440;2023-02-13T17:26:46;7.50;71.40
13198;DHT22;6664;52.514;13.440;2023-02-13T17:29:32;7.50;71.20
13198;DHT22;6664;52.514;13.440;2023-02-13T17:32:21;7.40;71.20
13198;DHT22;6664;52.514;13.440;2023-02-13T17:35:09;7.40;71.40
13198;DHT22;6664;52.514;13.440;2023-02-13T17:37:55;7.40;71.00
13198;DHT22;6664;52.514;13.440;2023-02-13T17:40:42;7.40;69.40
13198;DHT22;6664;52.514;13.440;2023-02-13T17:43:28;7.40;70.70
13198;DHT22;6664;52.514;13.440;2023-02-13T17:46:14;7.40;70.70
13198;DHT22;6664;52.514;13.440;2023-02-13T17:49:01;7.40;70.50
13198;DHT22;6664;52.514;13.440;2023-02-13T17:51:48;7.50;70.40
13198;DHT22;6664;52.514;13.440;2023-02-13T17:54:33;7.40;69.40
13198;DHT22;6664;52.514;13.440;2023-02-13T17:57:20;7.40;69.60
13198;DHT22;6664;52.514;13.440;2023-02-13T18:00:06;7.40;69.50
13198;DHT22;6664;52.514;13.440;2023-02-13T18:02:53;7.50;69.30
13198;DHT22;6664;52.514;13.440;2023-02-13T18:05:39;7.40;68.90
13198;DHT22;6664;52.514;13.440;2023-02-13T18:08:25;7.40;68.70
13198;DHT22;6664;52.514;13.440;2023-02-13T18:11:11;7.40;69.10
13198;DHT22;6664;52.514;13.440;2023-02-13T18:13:56;7.40;68.90
13198;DHT22;6664;52.514;13.440;2023-02-13T18:16:42;7.40;69.40
13198;DHT22;6664;52.514;13.440;2023-02-13T18:19:29;7.40;69.30
13198;DHT22;6664;52.514;13.440;2023-02-13T18:22:15;7.50;69.10
13198;DHT22;6664;52.514;13.440;2023-02-13T18:25:00;7.40;68.60
13198;DHT22;6664;52.514;13.440;2023-02-13T18:27:46;7.40;67.70
13198;DHT22;6664;52.514;13.440;2023-02-13T18:30:32;7.30;67.90
13198;DHT22;6664;52.514;13.440;2023-02-13T18:33:17;7.40;67.70
13198;DHT22;6664;52.514;13.440;2023-02-13T18:36:06;7.40;67.40
13198;DHT22;6664;52.514;13.440;2023-02-13T18:38:54;7.40;67.60
13198;DHT22;6664;52.514;13.440;2023-02-13T18:41:40;7.30;67.20
13198;DHT22;6664;52.514;13.440;2023-02-13T18:44:28;7.30;66.80
13198;DHT22;6664;52.514;13.440;2023-02-13T18:47:14;7.40;66.90
13198;DHT22;6664;52.514;13.440;2023-02-13T18:50:03;7.30;66.80
13198;DHT22;6664;52.514;13.440;2023-02-13T18:52:55;7.30;66.60
13198;DHT22;6664;52.514;13.440;2023-02-13T18:55:40;7.30;66.70
13198;DHT22;6664;52.514;13.440;2023-02-13T18:58:28;7.30;66.70
13198;DHT22;6664;52.514;13.440;2023-02-13T19:01:21;7.30;65.80
13198;DHT22;6664;52.514;13.440;2023-02-13T19:04:08;7.30;66.00
13198;DHT22;6664;52.514;13.440;2023-02-13T19:06:56;7.30;66.40
13198;DHT22;6664;52.514;13.440;2023-02-13T19:09:44;7.30;66.50
13198;DHT22;6664;52.514;13.440;2023-02-13T19:12:30;7.30;66.00
13198;DHT22;6664;52.514;13.440;2023-02-13T19:15:15;7.20;65.70
13198;DHT22;6664;52.514;13.440;2023-02-13T19:18:01;7.20;65.70
13198;DHT22;6664;52.514;13.440;2023-02-13T19:20:46;7.20;65.60
13198;DHT22;6664;52.514;13.440;2023-02-13T19:23:32;7.20;64.10
13198;DHT22;6664;52.514;13.440;2023-02-13T19:26:24;7.10;63.70
13198;DHT22;6664;52.514;13.440;2023-02-13T19:29:15;7.10;63.20
13198;DHT22;6664;52.514;13.440;2023-02-13T19:32:01;7.20;62.80
13198;DHT22;6664;52.514;13.440;2023-02-13T19:34:48;7.20;62.40
13198;DHT22;6664;52.514;13.440;2023-02-13T19:37:34;7.10;62.40
13198;DHT22;6664;52.514;13.440;2023-02-13T19:40:28;7.10;63.00
13198;DHT22;6664;52.514;13.440;2023-02-13T19:43:14;7.10;63.00
13198;DHT22;6664;52.514;13.440;2023-02-13T19:46:04;7.10;63.30
13198;DHT22;6664;52.514;13.440;2023-02-13T19:48:50;7.10;63.50
13198;DHT22;6664;52.514;13.440;2023-02-13T19:51:36;7.10;63.40
13198;DHT22;6664;52.514;13.440;2023-02-13T19:54:22;7.00;63.10
13198;DHT22;6664;52.514;13.440;2023-02-13T19:57:08;7.10;63.30
13198;DHT22;6664;52.514;13.440;2023-02-13T19:59:53;7.10;63.50
13198;DHT22;6664;52.514;13.440;2023-02-13T20:02:39;7.10;64.00
13198;DHT22;6664;52.514;13.440;2023-02-13T20:05:29;7.10;64.40
13198;DHT22;6664;52.514;13.440;2023-02-13T20:08:15;7.10;64.70
13198;DHT22;6664;52.514;13.440;2023-02-13T20:11:07;7.00;64.60
13198;DHT22;6664;52.514;13.440;2023-02-13T20:13:54;7.10;65.00
13198;DHT22;6664;52.514;13.440;2023-02-13T20:16:43;7.00;65.20
13198;DHT22;6664;52.514;13.440;2023-02-13T20:19:30;7.00;65.50
13198;DHT22;6664;52.514;13.440;2023-02-13T20:22:17;7.00;65.20
13198;DHT22;6664;52.514;13.440;2023-02-13T20:25:03;7.00;64.80
13198;DHT22;6664;52.514;13.440;2023-02-13T20:27:49;7.00;64.90